Sunningdale, United Kingdom
Current Conditions -  °F | °C
As of 4:20 PM on Wednesday 26 Nov 2014 (Local Time) from EGLF Reporting Station
Moderate Fog Moderate Fog  
Wind Chill: 46°   Ceiling: 200
Heat Index: 48°   Visibility: 0.25mi
Dew Point: 46°   Wind: 5mph
Humidity: 93%   Direction: 340°NNW
Pressure: 29.8"   Gusts: NA
Location:  51.38°N, 0.62°W
Report Text: EGLF 261620Z 34004KT 0400 R06/0800 FG OVC002 09/08 Q1009
Loading
Personal Weather Stations






























Interactive Weather Map New forecast layout! Learn more

10-Day Weather Forecast

Advertisements
Track Severe Weather on mobile